Time;durP1;ratioP1;P1;durP2;ratioP2;P2;SDS_P1;SDS_P2;PMS_P1;PMS_P2;Temp;Humidity;BMP_temperature;BMP_pressure;BME280_temperature;BME280_humidity;BME280_pressure;Samples;Min_cycle;Max_cycle;Signal;HPM_P1;HPM_P2
2022/02/07 00:01:40;;;;;;;1.48;0.20;;;;;;;1.63;93.86;94952.38;5050415;28;20099;-78
2022/02/07 00:04:08;;;;;;;0.45;0.10;;;;;;;1.54;94.09;94964.84;5050519;28;20076;-77
2022/02/07 00:06:35;;;;;;;1.45;0.03;;;;;;;1.57;94.38;94966.97;5050283;28;20056;-78
2022/02/07 00:09:01;;;;;;;0.30;0.00;;;;;;;1.50;94.27;94974.59;5050202;28;20052;-78
2022/02/07 00:11:29;;;;;;;0.30;0.10;;;;;;;1.46;94.16;94968.19;5049902;28;20067;-79
2022/02/07 00:13:56;;;;;;;0.55;0.15;;;;;;;1.42;93.96;94969.91;5050174;28;20048;-79
2022/02/07 00:16:22;;;;;;;0.98;0.10;;;;;;;1.36;94.47;94969.19;5050100;28;20057;-78
2022/02/07 00:18:49;;;;;;;0.47;0.10;;;;;;;1.41;94.57;94954.88;5050487;28;20056;-79
2022/02/07 00:21:15;;;;;;;0.08;0.08;;;;;;;1.45;94.83;94945.94;5049801;28;20049;-78
2022/02/07 00:23:42;;;;;;;0.20;0.03;;;;;;;1.48;95.08;94950.75;5050117;28;20041;-78
2022/02/07 00:26:10;;;;;;;0.10;0.10;;;;;;;1.48;94.57;94949.94;5049563;28;20041;-78
2022/02/07 00:28:38;;;;;;;0.00;0.00;;;;;;;1.38;94.02;94940.19;5049841;28;20040;-78
2022/02/07 00:31:04;;;;;;;0.00;0.00;;;;;;;1.30;93.41;94946.19;5049842;28;20124;-77
2022/02/07 00:33:31;;;;;;;0.00;0.00;;;;;;;1.19;93.23;94932.16;5049693;28;20049;-78
2022/02/07 00:35:57;;;;;;;0.00;0.00;;;;;;;1.11;93.38;94956.97;5050193;28;20037;-78
2022/02/07 00:38:25;;;;;;;0.00;0.00;;;;;;;1.04;93.91;94973.44;5048873;28;20051;-78
2022/02/07 00:41:13;;;;;;;0.10;0.00;;;;;;;1.07;94.12;95009.56;5049352;28;20045;-78
2022/02/07 00:43:44;;;;;;;0.00;0.00;;;;;;;1.03;94.35;95030.00;5049832;28;20088;-78
2022/02/07 00:46:12;;;;;;;0.20;0.10;;;;;;;1.02;94.93;95010.44;5049609;28;20048;-78
2022/02/07 00:48:40;;;;;;;0.25;0.10;;;;;;;1.04;95.37;94988.69;5049846;28;20068;-78
2022/02/07 00:51:10;;;;;;;0.10;0.10;;;;;;;1.10;95.59;94950.03;5049525;28;20037;-79
2022/02/07 00:53:36;;;;;;;0.00;0.00;;;;;;;1.18;95.53;94952.03;5049545;28;20495;-79
2022/02/07 00:56:04;;;;;;;0.10;0.03;;;;;;;1.19;95.19;94964.34;5049631;28;20048;-78
2022/02/07 00:58:30;;;;;;;0.00;0.00;;;;;;;1.25;95.30;94978.47;5049754;28;20056;-78
2022/02/07 01:00:59;;;;;;;0.00;0.00;;;;;;;1.33;95.26;94987.75;5050027;28;20128;-79
2022/02/07 01:03:26;;;;;;;0.00;0.00;;;;;;;1.34;95.27;94992.00;5049524;28;20052;-78
2022/02/07 01:05:53;;;;;;;0.03;0.03;;;;;;;1.39;95.03;95021.44;5049726;28;20064;-78
2022/02/07 01:08:26;;;;;;;0.35;0.10;;;;;;;1.37;94.69;95018.25;5049217;28;20045;-79
2022/02/07 01:10:59;;;;;;;0.80;0.10;;;;;;;1.33;94.45;95018.03;5049366;28;20415;-78
2022/02/07 01:13:42;;;;;;;0.10;0.10;;;;;;;1.32;94.70;95032.53;5049083;28;20492;-78
2022/02/07 01:16:19;;;;;;;0.10;0.10;;;;;;;1.28;94.72;95051.09;5049093;28;20059;-78
2022/02/07 01:46:30;;;;;;;0.00;0.00;;;;;;;0.74;95.14;95161.44;5048917;28;20080;-77
2022/02/07 01:52:03;;;;;;;0.10;0.10;;;;;;;0.64;95.05;95162.34;5052119;28;20518;-78
2022/02/07 01:54:37;;;;;;;0.52;0.25;;;;;;;0.65;95.15;95174.66;5052789;28;20041;-79
2022/02/07 01:57:07;;;;;;;0.08;0.05;;;;;;;0.64;95.46;95189.13;5052419;28;20045;-78
2022/02/07 01:59:34;;;;;;;0.10;0.10;;;;;;;0.63;95.74;95197.47;5052790;28;20047;-78
2022/02/07 02:02:01;;;;;;;0.10;0.10;;;;;;;0.60;95.85;95208.72;5052818;28;20045;-78
2022/02/07 02:04:29;;;;;;;0.08;0.03;;;;;;;0.59;96.05;95218.66;5052304;28;20041;-78
2022/02/07 02:06:56;;;;;;;0.10;0.10;;;;;;;0.60;96.36;95214.88;5052564;28;20056;-78
2022/02/07 02:09:23;;;;;;;1.35;0.10;;;;;;;0.62;96.41;95203.88;5052070;28;20053;-78
2022/02/07 02:11:49;;;;;;;1.27;0.10;;;;;;;0.65;96.53;95201.44;5052422;28;20077;-77
2022/02/07 02:14:32;;;;;;;0.10;0.10;;;;;;;0.67;96.59;95215.34;5052046;28;20055;-77
2022/02/07 02:34:17;;;;;;;0.10;0.10;;;;;;;0.72;95.61;95260.84;5051668;28;20051;-78
2022/02/07 02:37:06;;;;;;;0.22;0.10;;;;;;;0.69;96.14;95265.97;5051916;28;20112;-78
2022/02/07 02:47:45;;;;;;;0.20;0.20;;;;;;;0.66;96.70;95304.84;5051646;28;20048;-78
2022/02/07 02:50:27;;;;;;;0.20;0.20;;;;;;;0.68;96.61;95308.06;5051332;28;20069;-79
2022/02/07 02:52:54;;;;;;;0.25;0.20;;;;;;;0.65;96.65;95340.75;5051919;28;20045;-78
2022/02/07 02:55:22;;;;;;;0.30;0.30;;;;;;;0.71;96.75;95323.56;5051324;28;20072;-78
2022/02/07 02:57:48;;;;;;;0.40;0.30;;;;;;;0.69;96.33;95341.81;5051656;28;20037;-78
2022/02/07 03:00:15;;;;;;;0.30;0.30;;;;;;;0.66;96.57;95355.75;5051231;28;20056;-78
2022/02/07 03:02:42;;;;;;;0.30;0.28;;;;;;;0.72;96.50;95335.88;5050543;28;20045;-78
2022/02/07 03:05:09;;;;;;;0.57;0.50;;;;;;;0.70;96.34;95338.03;5050942;28;20408;-79
2022/02/07 03:07:35;;;;;;;0.47;0.30;;;;;;;0.72;96.10;95357.31;5051417;28;20045;-78
2022/02/07 03:10:03;;;;;;;0.32;0.22;;;;;;;0.76;95.91;95352.19;5050703;28;20049;-76
2022/02/07 03:12:33;;;;;;;0.60;0.30;;;;;;;0.77;95.71;95376.03;5051212;28;20052;-78
2022/02/07 03:16:36;;;;;;;2.08;0.30;;;;;;;0.87;95.21;95393.91;5051394;28;20120;-79
2022/02/07 03:17:46;;;;;;;0.15;0.15;;;;;;;0.93;94.61;95416.09;5050959;28;20041;-78
2022/02/07 03:20:13;;;;;;;0.20;0.20;;;;;;;1.00;94.21;95438.06;5050760;28;20119;-78
2022/02/07 03:22:40;;;;;;;1.85;0.20;;;;;;;1.06;93.33;95446.88;5051198;28;20041;-79
2022/02/07 03:25:08;;;;;;;1.00;0.30;;;;;;;1.13;92.94;95442.75;5050829;28;20052;-78
2022/02/07 03:27:36;;;;;;;0.38;0.28;;;;;;;1.16;91.87;95431.50;5051031;28;20044;-78
2022/02/07 03:30:04;;;;;;;1.33;0.25;;;;;;;1.21;91.62;95466.31;5050814;28;20037;-78
2022/02/07 03:32:32;;;;;;;0.10;0.10;;;;;;;1.23;91.17;95474.88;5050841;28;20048;-79
2022/02/07 03:34:59;;;;;;;0.50;0.20;;;;;;;1.23;90.60;95480.22;5051023;28;20048;-78
2022/02/07 03:37:25;;;;;;;0.40;0.22;;;;;;;1.28;90.48;95482.06;5042865;28;20045;-78
2022/02/07 03:39:52;;;;;;;0.52;0.28;;;;;;;1.32;90.22;95476.97;5043730;28;20510;-78
2022/02/07 03:42:19;;;;;;;0.20;0.20;;;;;;;1.34;90.13;95474.78;5050227;28;20048;-78
2022/02/07 03:44:47;;;;;;;0.73;0.40;;;;;;;1.35;89.38;95479.06;5046679;28;20052;-79
2022/02/07 03:47:13;;;;;;;1.17;0.30;;;;;;;1.43;89.35;95499.94;5045713;28;20056;-78
2022/02/07 03:49:40;;;;;;;1.67;0.30;;;;;;;1.48;89.31;95514.13;5050842;28;20052;-79
2022/02/07 03:52:08;;;;;;;0.70;0.30;;;;;;;1.47;88.27;95520.56;5050585;28;20056;-79
2022/02/07 03:54:35;;;;;;;0.40;0.25;;;;;;;1.51;88.78;95521.59;5050218;28;20049;-79
2022/02/07 03:57:02;;;;;;;0.77;0.50;;;;;;;1.50;88.22;95541.44;5050645;28;20041;-79
2022/02/07 03:59:28;;;;;;;3.75;0.40;;;;;;;1.48;88.14;95551.66;5050229;28;20044;-78
2022/02/07 04:01:56;;;;;;;0.70;0.40;;;;;;;1.55;88.00;95570.94;5050514;28;20052;-79
2022/02/07 04:04:23;;;;;;;0.40;0.30;;;;;;;1.56;88.30;95577.88;5050317;28;20056;-79
2022/02/07 04:06:49;;;;;;;0.70;0.40;;;;;;;1.53;88.25;95596.44;5050267;28;20081;-79
2022/02/07 04:09:20;;;;;;;1.50;0.52;;;;;;;1.57;88.54;95610.91;5049928;28;20045;-79
2022/02/07 04:11:51;;;;;;;1.33;0.55;;;;;;;1.57;88.81;95597.50;5050266;28;20519;-78
2022/02/07 04:14:22;;;;;;;1.35;0.57;;;;;;;1.56;89.28;95612.78;5049635;28;20057;-78
2022/02/07 04:16:49;;;;;;;0.30;0.30;;;;;;;1.49;89.72;95614.19;5049848;28;20056;-78
2022/02/07 04:19:19;;;;;;;1.35;0.60;;;;;;;1.47;89.76;95635.13;5049720;28;20102;-77
2022/02/07 04:21:48;;;;;;;0.68;0.30;;;;;;;1.41;89.50;95633.53;5050113;28;20520;-77
2022/02/07 04:24:15;;;;;;;0.50;0.40;;;;;;;1.08;90.34;95654.63;5049711;28;20424;-78
2022/02/07 04:26:41;;;;;;;0.43;0.40;;;;;;;0.94;91.24;95661.63;5049956;28;20065;-78
2022/02/07 04:29:08;;;;;;;0.82;0.50;;;;;;;0.84;92.41;95661.69;5049567;28;20045;-80
2022/02/07 04:31:35;;;;;;;2.35;0.55;;;;;;;0.75;92.98;95667.59;5049759;28;20040;-78
2022/02/07 04:34:01;;;;;;;1.27;0.47;;;;;;;0.67;93.48;95670.03;5049476;28;20051;-78
2022/02/07 04:36:29;;;;;;;3.25;0.30;;;;;;;0.57;93.56;95676.22;5049586;28;20048;-78
2022/02/07 04:38:56;;;;;;;1.30;0.50;;;;;;;0.53;93.87;95669.81;5049619;28;20512;-78
2022/02/07 04:41:24;;;;;;;0.75;0.40;;;;;;;0.48;94.37;95675.19;5049428;28;20059;-78
2022/02/07 04:43:54;;;;;;;0.30;0.30;;;;;;;0.44;94.73;95682.13;5049886;28;20041;-78
2022/02/07 04:46:36;;;;;;;1.33;0.52;;;;;;;0.46;94.56;95682.66;5048978;28;20515;-78
2022/02/07 04:49:24;;;;;;;0.63;0.60;;;;;;;0.49;93.92;95684.81;5049366;28;20659;-78
2022/02/07 04:51:59;;;;;;;1.77;0.77;;;;;;;0.50;92.59;95684.53;5049884;28;20041;-78
2022/02/07 04:54:52;;;;;;;1.00;0.57;;;;;;;0.53;91.92;95691.25;5048939;28;20045;-78
2022/02/07 04:57:43;;;;;;;3.45;1.33;;;;;;;0.55;91.58;95707.84;5049443;28;20450;-79
2022/02/07 05:00:24;;;;;;;1.63;0.65;;;;;;;0.58;91.68;95715.34;5049337;28;20049;-78
2022/02/07 05:03:00;;;;;;;5.95;0.73;;;;;;;0.60;91.61;95721.22;5049619;28;20442;-78
2022/02/07 05:13:39;;;;;;;1.17;0.60;;;;;;;0.63;91.27;95731.41;5049033;28;20036;-78
2022/02/07 05:13:49;;;;;;;2.45;0.60;;;;;;;0.65;91.41;95758.72;5049448;28;20075;-79
2022/02/07 05:16:23;;;;;;;0.80;0.50;;;;;;;0.64;91.26;95756.34;5048675;28;20041;-78
2022/02/07 05:18:54;;;;;;;3.05;0.95;;;;;;;0.68;91.31;95765.41;5049596;28;20041;-79
2022/02/07 05:21:21;;;;;;;1.83;0.65;;;;;;;0.75;90.90;95772.13;5049088;28;20048;-78
2022/02/07 05:23:49;;;;;;;2.45;0.90;;;;;;;0.76;90.66;95781.75;5049412;28;20060;-78
2022/02/07 05:26:16;;;;;;;2.10;0.40;;;;;;;0.79;89.96;95791.16;5051153;28;20044;-79
2022/02/07 05:28:43;;;;;;;3.72;0.85;;;;;;;0.76;89.40;95792.47;5053397;28;20041;-78
2022/02/07 05:31:10;;;;;;;2.67;0.85;;;;;;;0.81;89.43;95799.72;5052935;28;20040;-78
2022/02/07 05:33:38;;;;;;;1.67;0.70;;;;;;;0.85;89.10;95811.50;5053145;28;20045;-78
2022/02/07 05:36:05;;;;;;;6.90;1.13;;;;;;;0.86;88.81;95820.34;5052766;28;20128;-78
2022/02/07 05:38:34;;;;;;;1.48;0.60;;;;;;;0.92;88.81;95835.34;5052991;28;20052;-79
2022/02/07 05:41:03;;;;;;;3.58;0.75;;;;;;;0.92;88.82;95833.47;5052937;28;20049;-79
2022/02/07 05:43:30;;;;;;;1.55;0.80;;;;;;;0.97;88.66;95830.78;5052818;28;20093;-78
2022/02/07 05:45:57;;;;;;;3.80;0.60;;;;;;;0.97;88.21;95838.84;5052876;28;20049;-77
2022/02/07 05:48:24;;;;;;;3.83;1.00;;;;;;;1.02;88.58;95846.88;5052598;28;20033;-79
2022/02/07 05:50:50;;;;;;;5.25;1.00;;;;;;;1.08;88.16;95855.72;5052942;28;20044;-78
2022/02/07 05:53:17;;;;;;;3.08;0.75;;;;;;;1.08;87.20;95847.69;5052612;28;20052;-78
2022/02/07 05:55:43;;;;;;;1.98;0.90;;;;;;;1.04;86.90;95866.19;5052320;28;20049;-78
2022/02/07 05:58:11;;;;;;;2.70;0.55;;;;;;;1.04;86.53;95866.19;5052346;28;20511;-78
2022/02/07 06:00:38;;;;;;;3.75;0.90;;;;;;;1.08;86.67;95882.53;5053029;28;20041;-79
2022/02/07 06:03:05;;;;;;;3.28;0.73;;;;;;;1.05;86.51;95880.41;5052519;28;20047;-79
2022/02/07 06:05:32;;;;;;;1.83;0.80;;;;;;;1.02;86.75;95903.19;5052658;28;20048;-78
2022/02/07 06:07:59;;;;;;;3.35;1.25;;;;;;;1.09;86.23;95913.63;5052659;28;20049;-78
2022/02/07 06:10:25;;;;;;;1.98;0.70;;;;;;;1.06;85.80;95913.38;5052277;28;20652;-78
2022/02/07 06:12:52;;;;;;;3.95;0.70;;;;;;;1.04;86.33;95937.75;5052600;28;20447;-75
2022/02/07 06:15:20;;;;;;;3.08;0.70;;;;;;;1.02;85.34;95943.41;5051708;28;20041;-76
2022/02/07 06:17:51;;;;;;;3.15;0.90;;;;;;;1.03;86.08;95954.94;5052381;28;20463;-75
2022/02/07 06:20:17;;;;;;;2.72;0.90;;;;;;;0.99;85.26;95964.56;5051659;28;20049;-75
2022/02/07 06:22:45;;;;;;;2.85;0.80;;;;;;;0.92;85.53;95972.06;5052148;28;20403;-75
2022/02/07 06:25:12;;;;;;;4.28;0.80;;;;;;;0.99;85.76;95977.97;5051699;28;20558;-76
2022/02/07 06:27:38;;;;;;;2.22;0.63;;;;;;;0.95;84.93;95988.44;5052251;28;20094;-76
2022/02/07 06:30:06;;;;;;;2.22;0.73;;;;;;;0.93;84.77;96005.84;5052071;28;20045;-75
2022/02/07 06:32:33;;;;;;;5.20;1.10;;;;;;;0.90;85.29;96006.41;5052161;28;20048;-75
2022/02/07 06:35:00;;;;;;;5.13;0.90;;;;;;;0.89;85.11;96013.63;5052169;28;20516;-75
2022/02/07 06:37:27;;;;;;;1.88;0.57;;;;;;;0.92;85.12;96037.22;5051822;28;20411;-75
2022/02/07 06:39:53;;;;;;;3.55;0.80;;;;;;;0.95;84.75;96038.59;5051894;28;20047;-75
2022/02/07 06:42:21;;;;;;;4.13;0.90;;;;;;;0.93;84.08;96032.66;5051604;28;20045;-75
2022/02/07 06:44:47;;;;;;;3.42;1.10;;;;;;;0.94;84.10;96035.09;5051880;28;20056;-75
2022/02/07 06:47:14;;;;;;;3.15;0.85;;;;;;;0.91;82.38;96056.25;5051502;28;20060;-76
2022/02/07 06:49:42;;;;;;;2.50;1.08;;;;;;;0.82;83.70;96057.81;5051887;28;20057;-75
2022/02/07 06:52:08;;;;;;;8.82;1.27;;;;;;;0.88;82.59;96067.50;5051537;28;20044;-75
2022/02/07 06:54:36;;;;;;;5.80;1.02;;;;;;;0.85;81.71;96074.19;5051597;28;20056;-75
2022/02/07 06:57:02;;;;;;;4.90;1.05;;;;;;;0.82;83.25;96087.31;5051486;28;20045;-75
2022/02/07 06:59:33;;;;;;;8.02;1.30;;;;;;;0.78;83.42;96095.91;5051941;28;20045;-76
2022/02/07 07:02:00;;;;;;;3.05;0.80;;;;;;;0.84;82.58;96106.63;5051616;28;20049;-75
2022/02/07 07:04:28;;;;;;;4.43;0.82;;;;;;;0.78;81.88;96093.22;5051208;28;20111;-75
2022/02/07 07:06:56;;;;;;;3.47;0.90;;;;;;;0.86;82.84;96112.53;5051646;28;20048;-75
2022/02/07 07:09:23;;;;;;;5.13;1.02;;;;;;;0.89;82.25;96107.47;5051138;28;20052;-76
2022/02/07 07:11:49;;;;;;;3.35;1.13;;;;;;;0.90;82.44;96121.66;5051442;28;20530;-75
2022/02/07 07:14:18;;;;;;;30.80;3.15;;;;;;;0.90;82.20;96129.72;5051067;28;20098;-75
2022/02/07 07:16:51;;;;;;;6.40;1.13;;;;;;;0.91;82.32;96134.81;5051088;28;20045;-77
2022/02/07 07:19:19;;;;;;;4.07;0.98;;;;;;;0.94;82.51;96141.50;5050967;28;20099;-77
2022/02/07 07:21:47;;;;;;;5.63;1.10;;;;;;;0.98;83.34;96142.59;5051129;28;20098;-77
2022/02/07 07:24:16;;;;;;;6.68;1.10;;;;;;;1.02;83.21;96149.06;5051003;28;20052;-76
2022/02/07 07:26:43;;;;;;;8.27;1.13;;;;;;;1.02;82.28;96155.22;5051214;28;20040;-77
2022/02/07 07:29:13;;;;;;;5.03;0.98;;;;;;;1.00;81.23;96172.66;5050779;28;20049;-77
2022/02/07 07:31:44;;;;;;;4.32;1.27;;;;;;;1.06;82.44;96174.28;5051117;28;20041;-77
2022/02/07 07:34:15;;;;;;;6.30;1.00;;;;;;;1.00;81.93;96168.09;5050324;28;20055;-77
2022/02/07 07:36:41;;;;;;;4.05;1.10;;;;;;;1.01;81.43;96176.94;5051081;28;20626;-77
2022/02/07 07:39:08;;;;;;;12.00;1.30;;;;;;;1.05;81.30;96170.00;5049926;28;20048;-80
2022/02/07 07:41:35;;;;;;;4.50;1.20;;;;;;;1.02;80.98;96175.88;5050727;28;20086;-76
2022/02/07 07:44:02;;;;;;;4.32;1.02;;;;;;;1.01;80.40;96191.16;5050134;28;20679;-76
2022/02/07 07:46:30;;;;;;;6.72;0.93;;;;;;;1.03;79.95;96204.28;5048963;28;20051;-78
2022/02/07 07:49:01;;;;;;;5.75;1.50;;;;;;;1.09;81.17;96203.25;5050183;28;20048;-78
2022/02/07 07:51:35;;;;;;;7.00;1.25;;;;;;;1.14;79.46;96200.59;5050254;28;20041;-79
2022/02/07 07:54:24;;;;;;;3.78;1.05;;;;;;;1.19;80.46;96203.28;5050824;28;20048;-77
2022/02/07 08:02:24;;;;;;;6.93;1.05;;;;;;;1.22;79.45;96218.06;5049606;28;20060;-78
2022/02/07 08:04:51;;;;;;;6.70;1.38;;;;;;;1.16;78.35;96222.59;5050510;28;20045;-76
2022/02/07 08:07:21;;;;;;;4.90;1.05;;;;;;;1.17;79.22;96223.41;5049801;28;20120;-75
2022/02/07 08:10:04;;;;;;;3.55;0.88;;;;;;;1.16;78.85;96235.22;5050314;28;20041;-80
2022/02/07 08:12:35;;;;;;;2.75;0.75;;;;;;;1.14;79.60;96243.50;5050205;28;20110;-80
2022/02/07 08:15:01;;;;;;;7.35;1.05;;;;;;;1.15;78.99;96238.94;5049901;28;20564;-77
2022/02/07 08:17:28;;;;;;;4.68;0.93;;;;;;;1.18;78.93;96249.16;5049980;28;20053;-79
2022/02/07 08:19:55;;;;;;;6.20;1.10;;;;;;;1.21;78.82;96254.00;5050048;28;20060;-78
2022/02/07 08:22:24;;;;;;;6.75;1.05;;;;;;;1.26;79.18;96252.16;5049474;28;20049;-77
2022/02/07 08:24:55;;;;;;;2.65;0.77;;;;;;;1.29;78.90;96256.97;5049888;28;20103;-76
2022/02/07 08:27:22;;;;;;;4.35;1.00;;;;;;;1.37;78.84;96262.94;5049327;28;20048;-77
2022/02/07 08:29:51;;;;;;;7.85;1.23;;;;;;;1.38;78.23;96280.66;5049965;28;20079;-78
2022/02/07 08:32:17;;;;;;;5.60;1.15;;;;;;;1.40;77.90;96281.19;5048878;28;20052;-78
2022/02/07 08:34:44;;;;;;;2.63;1.23;;;;;;;1.37;77.86;96290.56;5049854;28;20045;-80
2022/02/07 08:37:11;;;;;;;4.82;1.08;;;;;;;1.37;79.75;96301.31;5049073;28;20090;-79
2022/02/07 08:39:37;;;;;;;5.78;1.17;;;;;;;1.51;78.27;96304.31;5049609;28;20045;-77
2022/02/07 08:42:04;;;;;;;5.40;1.02;;;;;;;1.67;78.08;96306.00;5049234;28;20037;-77
2022/02/07 08:44:31;;;;;;;5.43;1.20;;;;;;;1.95;77.39;96317.38;5049580;28;20504;-78
2022/02/07 08:46:59;;;;;;;5.53;1.60;;;;;;;1.97;75.43;96321.41;5049559;28;20396;-77
2022/02/07 08:49:25;;;;;;;5.55;1.00;;;;;;;1.91;75.67;96332.41;5049206;28;20045;-77
2022/02/07 08:51:52;;;;;;;6.28;1.35;;;;;;;1.87;75.45;96331.31;5050344;28;20045;-81
2022/02/07 08:54:25;;;;;;;4.32;1.00;;;;;;;1.83;75.27;96331.03;5049550;28;20048;-78
2022/02/07 08:56:55;;;;;;;4.65;0.98;;;;;;;1.80;75.22;96348.47;5049545;28;20098;-78
2022/02/07 08:59:29;;;;;;;3.63;1.02;;;;;;;1.80;75.64;96358.41;5049211;28;20044;-78
2022/02/07 09:02:10;;;;;;;3.53;0.88;;;;;;;1.80;75.05;96353.84;5053393;28;20095;-80
2022/02/07 09:04:49;;;;;;;6.43;1.00;;;;;;;1.75;75.72;96355.69;5053582;28;20044;-79
2022/02/07 09:07:19;;;;;;;5.85;1.30;;;;;;;1.82;76.68;96372.34;5053484;28;20140;-77
2022/02/07 09:09:46;;;;;;;8.35;1.35;;;;;;;1.87;75.98;96366.22;5053520;28;20045;-78
2022/02/07 09:12:13;;;;;;;3.75;1.02;;;;;;;1.83;75.85;96380.16;5053149;28;20045;-76
2022/02/07 09:14:50;;;;;;;7.60;0.93;;;;;;;1.85;75.18;96387.97;5053557;28;20440;-74
2022/02/07 09:17:17;;;;;;;5.05;1.10;;;;;;;1.97;77.37;96388.53;5052925;28;20147;-78
2022/02/07 09:19:45;;;;;;;5.97;1.20;;;;;;;2.06;75.97;96396.91;5053282;28;20156;-78
2022/02/07 09:22:11;;;;;;;3.65;1.15;;;;;;;2.13;77.08;96405.53;5052893;28;20491;-81
2022/02/07 09:24:38;;;;;;;7.32;1.50;;;;;;;1.97;76.06;96395.78;5053244;28;20045;-77
2022/02/07 09:27:05;;;;;;;4.95;1.27;;;;;;;1.87;77.25;96417.22;5052838;28;20065;-75
2022/02/07 09:29:32;;;;;;;5.15;1.83;;;;;;;1.99;78.46;96409.78;5053306;28;20056;-79
2022/02/07 09:32:00;;;;;;;5.10;1.50;;;;;;;2.03;76.85;96418.91;5053013;28;20481;-75
2022/02/07 09:34:26;;;;;;;6.65;1.10;;;;;;;1.96;75.83;96416.47;5052492;28;20403;-78
2022/02/07 09:36:54;;;;;;;3.63;1.23;;;;;;;1.86;76.86;96426.34;5053192;28;20132;-76
2022/02/07 09:39:23;;;;;;;5.93;1.63;;;;;;;1.74;76.56;96435.44;5052618;28;20049;-76
2022/02/07 09:41:52;;;;;;;8.98;1.40;;;;;;;1.79;77.94;96451.56;5053069;28;20041;-76
2022/02/07 09:44:21;;;;;;;8.20;1.20;;;;;;;1.78;77.05;96441.09;5052472;28;20504;-76
2022/02/07 09:46:48;;;;;;;5.15;1.05;;;;;;;1.81;77.59;96437.88;5052729;28;20049;-79
2022/02/07 09:49:18;;;;;;;7.18;1.20;;;;;;;1.85;78.63;96451.59;5052733;28;20454;-79
2022/02/07 09:51:45;;;;;;;5.28;1.10;;;;;;;1.87;77.75;96460.19;5052778;28;20045;-78
2022/02/07 09:54:16;;;;;;;3.05;1.00;;;;;;;1.76;76.66;96459.31;5052375;28;20132;-79
2022/02/07 09:56:44;;;;;;;3.92;1.10;;;;;;;1.78;76.58;96474.13;5052662;28;20407;-79
2022/02/07 09:59:11;;;;;;;4.97;1.20;;;;;;;1.86;76.60;96470.13;5052723;28;20121;-80
2022/02/07 10:01:41;;;;;;;3.33;1.40;;;;;;;1.82;76.13;96472.50;5053100;28;20067;-80
2022/02/07 10:04:13;;;;;;;5.20;1.25;;;;;;;1.69;76.50;96483.72;5051956;28;20049;-77
2022/02/07 10:06:50;;;;;;;6.22;1.17;;;;;;;1.70;76.71;96482.63;5052746;28;20064;-77
2022/02/07 10:09:38;;;;;;;5.30;0.95;;;;;;;1.60;77.66;96490.63;5051984;28;20141;-79
2022/02/07 10:12:23;;;;;;;5.97;1.17;;;;;;;1.62;77.23;96496.56;5051984;28;20065;-78
2022/02/07 10:15:02;;;;;;;5.03;0.95;;;;;;;1.71;77.17;96510.28;5052621;28;20045;-79
2022/02/07 10:17:38;;;;;;;9.30;1.42;;;;;;;1.78;77.72;96506.34;5052228;28;20041;-76
2022/02/07 10:20:41;;;;;;;6.55;1.15;;;;;;;1.77;76.52;96517.31;5051834;28;20415;-77
2022/02/07 10:34:54;;;;;;;5.28;1.40;;;;;;;1.70;78.02;96543.59;5051400;28;20093;-75
2022/02/07 10:40:25;;;;;;;5.75;1.58;;;;;;;1.78;77.21;96549.28;5026779;28;20060;-77
2022/02/07 10:43:13;;;;;;;9.90;1.92;;;;;;;1.76;77.09;96543.34;5051947;28;20124;-76
2022/02/07 10:46:05;;;;;;;11.48;2.00;;;;;;;1.81;78.18;96553.31;5051435;28;20041;-77
2022/02/07 10:48:39;;;;;;;7.72;1.17;;;;;;;1.77;78.62;96552.22;5051638;28;20037;-76
2022/02/07 10:51:08;;;;;;;7.38;1.23;;;;;;;1.83;77.08;96552.03;5051363;28;20082;-76
2022/02/07 10:53:37;;;;;;;5.65;1.48;;;;;;;1.85;77.17;96554.44;5051880;28;20049;-77
2022/02/07 10:56:04;;;;;;;4.88;1.33;;;;;;;1.81;77.44;96564.88;5051063;28;20076;-76
2022/02/07 10:58:32;;;;;;;3.97;1.15;;;;;;;1.76;77.91;96578.25;5051745;28;20045;-76
2022/02/07 11:01:06;;;;;;;6.38;2.17;;;;;;;1.79;78.59;96567.00;5051674;28;20044;-76
2022/02/07 11:03:38;;;;;;;10.77;1.23;;;;;;;1.75;77.51;96586.56;5051498;28;20045;-77
2022/02/07 11:06:08;;;;;;;5.50;1.58;;;;;;;1.79;77.90;96585.00;5051050;28;20037;-76
2022/02/07 11:08:44;;;;;;;4.10;1.10;;;;;;;1.79;76.96;96585.81;5050668;28;20044;-76
2022/02/07 11:11:32;;;;;;;6.43;1.02;;;;;;;1.85;77.46;96593.91;5050952;28;20041;-77
2022/02/07 11:14:31;;;;;;;9.57;2.22;;;;;;;1.89;77.40;96598.50;5051451;28;20140;-77
2022/02/07 11:17:14;;;;;;;10.38;1.45;;;;;;;2.01;77.65;96591.06;5051338;28;20052;-77
2022/02/07 11:19:54;;;;;;;4.25;0.98;;;;;;;2.08;77.21;96604.28;5051288;28;20099;-77
2022/02/07 11:22:38;;;;;;;4.60;1.08;;;;;;;2.06;76.64;96603.75;5050480;28;20049;-76
2022/02/07 11:25:23;;;;;;;4.22;1.20;;;;;;;2.06;76.91;96599.16;5049822;28;20053;-79
2022/02/07 11:27:53;;;;;;;4.32;1.35;;;;;;;1.96;76.99;96611.72;5031028;28;20037;-78
2022/02/07 11:30:42;;;;;;;5.65;1.40;;;;;;;1.90;76.96;96618.13;5030722;28;20041;-78
2022/02/07 11:33:50;;;;;;;4.75;1.30;;;;;;;1.94;77.27;96616.53;5029769;28;20056;-77
2022/02/07 11:36:30;;;;;;;5.70;1.33;;;;;;;1.98;76.70;96628.38;5030535;28;20488;-76
2022/02/07 11:39:12;;;;;;;6.80;1.35;;;;;;;2.00;77.48;96631.63;5030841;28;20043;-74
2022/02/07 11:42:04;;;;;;;7.53;1.70;;;;;;;2.07;77.22;96632.22;5030656;28;20037;-77
2022/02/07 11:44:51;;;;;;;9.35;1.45;;;;;;;2.08;77.30;96647.25;5030635;28;20042;-76
2022/02/07 11:47:25;;;;;;;7.80;1.67;;;;;;;2.18;77.21;96655.41;5048767;28;20141;-76
2022/02/07 11:49:53;;;;;;;8.88;1.60;;;;;;;2.20;77.71;96661.34;5050928;28;20566;-77
2022/02/07 11:52:30;;;;;;;6.43;1.50;;;;;;;2.16;76.69;96662.91;5050331;28;20053;-77
2022/02/07 11:54:56;;;;;;;5.93;1.20;;;;;;;2.19;76.05;96662.38;5050167;28;20051;-76
2022/02/07 11:57:25;;;;;;;8.20;1.17;;;;;;;2.19;75.63;96683.88;5050041;28;20048;-77
2022/02/07 11:59:58;;;;;;;3.88;1.05;;;;;;;2.20;75.68;96669.41;5050385;28;20033;-77
2022/02/07 12:02:35;;;;;;;5.47;1.33;;;;;;;2.16;75.13;96673.66;5049920;28;20053;-78
2022/02/07 12:05:02;;;;;;;4.07;1.10;;;;;;;2.24;75.93;96697.34;5050279;28;20041;-80
2022/02/07 12:07:35;;;;;;;6.38;1.45;;;;;;;2.28;75.23;96693.09;5050041;28;20044;-80
2022/02/07 12:10:26;;;;;;;5.32;1.30;;;;;;;2.23;75.55;96693.06;5050620;28;20052;-78
2022/02/07 12:12:57;;;;;;;6.63;1.15;;;;;;;2.28;75.77;96693.09;5050106;28;20041;-78
2022/02/07 12:15:32;;;;;;;3.95;1.23;;;;;;;2.32;76.13;96688.84;5049677;28;20391;-78
2022/02/07 12:18:01;;;;;;;7.93;1.40;;;;;;;2.33;75.25;96674.31;5050109;28;20052;-78
2022/02/07 12:20:33;;;;;;;3.60;1.20;;;;;;;2.41;74.69;96697.25;5049871;28;20043;-76
2022/02/07 12:23:07;;;;;;;5.63;1.33;;;;;;;2.50;75.26;96678.75;5049690;28;20123;-76
2022/02/07 12:25:48;;;;;;;9.00;1.38;;;;;;;2.55;74.31;96687.66;5049623;28;20048;-77
2022/02/07 12:28:20;;;;;;;6.93;1.50;;;;;;;2.55;74.55;96705.66;5049612;28;20143;-78
2022/02/07 12:31:02;;;;;;;12.52;1.83;;;;;;;2.56;73.40;96704.63;5049949;28;20094;-78
2022/02/07 12:33:31;;;;;;;5.97;1.27;;;;;;;2.56;74.53;96704.63;5049525;28;20577;-78
2022/02/07 12:35:58;;;;;;;4.50;1.83;;;;;;;2.57;74.88;96716.97;5049932;28;20043;-80
2022/02/07 12:38:25;;;;;;;10.68;1.60;;;;;;;2.61;74.16;96718.09;5049392;28;20044;-78
2022/02/07 12:40:53;;;;;;;13.65;1.90;;;;;;;2.55;75.31;96724.47;5049860;28;20040;-80
2022/02/07 12:43:20;;;;;;;7.82;1.67;;;;;;;2.54;74.59;96734.41;5049558;28;20049;-80
2022/02/07 12:45:47;;;;;;;5.50;1.25;;;;;;;2.50;74.93;96717.19;5049415;28;20048;-78
2022/02/07 12:48:16;;;;;;;4.55;1.35;;;;;;;2.47;73.64;96746.47;5049906;28;20520;-78
2022/02/07 12:50:50;;;;;;;4.18;1.02;;;;;;;2.37;74.63;96749.06;5049722;28;20045;-79
2022/02/07 12:53:17;;;;;;;10.15;1.27;;;;;;;2.28;75.75;96730.72;5049611;28;20377;-79
2022/02/07 12:55:46;;;;;;;6.35;1.30;;;;;;;2.33;75.34;96744.19;5049586;28;20068;-78
2022/02/07 12:58:12;;;;;;;7.53;1.45;;;;;;;2.40;74.64;96743.16;5049128;28;20045;-77
2022/02/07 13:00:39;;;;;;;6.47;1.00;;;;;;;2.35;74.78;96755.53;5049429;28;20045;-78
2022/02/07 13:03:06;;;;;;;6.03;1.42;;;;;;;2.37;74.69;96754.44;5049300;28;20056;-78
2022/02/07 13:05:34;;;;;;;6.55;1.08;;;;;;;2.37;74.94;96757.13;5049148;28;20055;-77
2022/02/07 13:08:02;;;;;;;3.20;1.10;;;;;;;2.25;76.41;96762.69;5049810;28;20398;-78
2022/02/07 13:10:35;;;;;;;7.35;1.88;;;;;;;2.20;77.59;96766.13;5049167;28;20514;-76
2022/02/07 13:13:19;;;;;;;3.55;1.20;;;;;;;2.11;77.26;96766.84;5049680;28;20044;-75
2022/02/07 13:15:47;;;;;;;8.38;1.65;;;;;;;1.96;78.75;96773.66;5048965;28;20753;-78
2022/02/07 13:18:17;;;;;;;8.52;1.70;;;;;;;1.93;79.51;96770.66;5048859;28;20052;-77
2022/02/07 13:20:44;;;;;;;7.45;1.67;;;;;;;1.96;79.68;96775.53;5049382;28;20048;-78